createdAt,value
2019-06-08T00:00:32.407Z,15.32
2019-06-08T00:02:32.441Z,15.29
2019-06-08T00:03:32.417Z,15.29
2019-06-08T00:04:32.427Z,15.28
2019-06-08T00:05:32.417Z,15.25
2019-06-08T00:07:32.415Z,15.22
2019-06-08T00:08:32.488Z,15.21
2019-06-08T00:09:32.446Z,15.21
2019-06-08T00:10:32.440Z,15.20
2019-06-08T00:12:32.409Z,15.16
2019-06-08T00:13:32.490Z,15.16
2019-06-08T00:14:32.466Z,15.15
2019-06-08T00:15:32.435Z,15.17
2019-06-08T00:17:38.472Z,15.17
2019-06-08T00:18:32.478Z,15.14
2019-06-08T00:19:32.473Z,15.14
2019-06-08T00:20:32.457Z,15.15
2019-06-08T00:23:32.433Z,15.13
2019-06-08T00:24:32.432Z,15.13
2019-06-08T00:25:32.472Z,15.11
2019-06-08T00:26:32.494Z,15.11
2019-06-08T00:28:32.443Z,15.11
2019-06-08T00:29:32.437Z,15.10
2019-06-08T00:30:32.907Z,15.07
2019-06-08T00:31:32.445Z,15.08
2019-06-08T00:33:32.516Z,15.07
2019-06-08T00:34:32.463Z,15.05
2019-06-08T00:35:32.509Z,15.05
2019-06-08T00:36:32.443Z,15.05
2019-06-08T00:38:32.446Z,15.02
2019-06-08T00:39:32.460Z,15.02
2019-06-08T00:40:32.462Z,15.00
2019-06-08T00:41:32.466Z,14.99
2019-06-08T00:43:32.480Z,14.97
2019-06-08T00:44:32.465Z,14.97
2019-06-08T00:45:32.451Z,14.96
2019-06-08T00:46:32.461Z,14.95
2019-06-08T00:48:32.457Z,14.93
2019-06-08T00:49:32.513Z,14.93
2019-06-08T00:50:32.512Z,14.91
2019-06-08T00:51:32.477Z,14.90
2019-06-08T00:54:32.485Z,14.87
2019-06-08T00:55:32.479Z,14.85
2019-06-08T00:56:32.556Z,14.85
2019-06-08T00:57:32.478Z,14.85
2019-06-08T01:00:32.488Z,14.82
2019-06-08T01:01:32.546Z,14.81
2019-06-08T01:02:32.517Z,14.79
2019-06-08T01:03:32.517Z,14.80
2019-06-08T01:04:32.531Z,14.76
2019-06-08T01:06:32.514Z,14.74
2019-06-08T01:07:32.484Z,14.73
2019-06-08T01:08:32.490Z,14.72
2019-06-08T01:09:32.493Z,14.71
2019-06-08T01:10:32.486Z,14.69
2019-06-08T01:12:32.502Z,14.65
2019-06-08T01:13:32.536Z,14.63
2019-06-08T01:14:32.529Z,14.60
2019-06-08T01:15:34.405Z,14.59
2019-06-08T01:17:32.507Z,14.53
2019-06-08T01:18:32.573Z,14.49
2019-06-08T01:19:32.526Z,14.46
2019-06-08T01:20:32.566Z,14.42
2019-06-08T01:21:32.493Z,14.41
2019-06-08T01:23:32.505Z,14.35
2019-06-08T01:24:32.499Z,14.33
2019-06-08T01:25:32.513Z,14.30
2019-06-08T01:26:32.499Z,14.30
2019-06-08T01:27:32.548Z,14.26
2019-06-08T01:29:32.543Z,14.26
2019-06-08T01:30:32.517Z,14.25
2019-06-08T01:31:32.588Z,14.24
2019-06-08T01:32:32.596Z,14.23
2019-06-08T01:33:32.555Z,14.23
2019-06-08T01:35:32.531Z,14.20
2019-06-08T01:36:32.535Z,14.19
2019-06-08T01:37:32.523Z,14.18
2019-06-08T01:38:32.523Z,14.18
2019-06-08T01:39:32.592Z,14.17
2019-06-08T01:41:32.567Z,14.14
2019-06-08T01:42:32.552Z,14.14
2019-06-08T01:43:32.589Z,14.13
2019-06-08T01:44:32.547Z,14.11
2019-06-08T01:45:33.210Z,14.09
2019-06-08T01:47:32.585Z,14.08
2019-06-08T01:48:32.561Z,14.09
2019-06-08T01:49:32.632Z,14.07
2019-06-08T01:50:32.818Z,14.06
2019-06-08T01:51:32.819Z,14.06
2019-06-08T01:53:33.002Z,14.03
2019-06-08T01:54:33.342Z,14.04
2019-06-08T01:55:33.273Z,14.03
2019-06-08T01:56:33.357Z,14.01
2019-06-08T01:57:33.828Z,14.01
2019-06-08T01:59:34.547Z,14.00
2019-06-08T02:00:37.686Z,13.99
2019-06-08T02:01:34.015Z,13.99
2019-06-08T02:02:34.093Z,14.00
2019-06-08T02:03:32.788Z,13.99
2019-06-08T02:05:32.619Z,13.98
2019-06-08T02:06:32.563Z,14.01
2019-06-08T02:07:32.624Z,13.99
2019-06-08T02:08:32.672Z,14.00
2019-06-08T02:09:32.790Z,13.99
2019-06-08T02:11:33.025Z,13.98
2019-06-08T02:12:33.121Z,13.98
2019-06-08T02:13:33.094Z,13.97
2019-06-08T02:14:33.260Z,13.97
2019-06-08T02:15:33.824Z,13.96
2019-06-08T02:17:33.465Z,13.96
2019-06-08T02:18:41.921Z,13.95
2019-06-08T02:19:32.743Z,13.96
2019-06-08T02:20:33.007Z,13.94
2019-06-08T02:21:32.805Z,13.93
2019-06-08T02:23:33.120Z,13.92
2019-06-08T02:24:33.377Z,13.91
2019-06-08T02:25:33.529Z,13.89
2019-06-08T02:26:35.206Z,13.89
2019-06-08T02:27:33.564Z,13.88
2019-06-08T02:29:33.698Z,13.86
2019-06-08T02:30:34.188Z,13.85
2019-06-08T02:31:33.228Z,13.82
2019-06-08T02:32:33.508Z,13.81
2019-06-08T02:33:34.628Z,13.79
2019-06-08T02:35:32.847Z,13.76
2019-06-08T02:36:33.779Z,13.72
2019-06-08T02:37:33.189Z,13.70
2019-06-08T02:38:34.271Z,13.69
2019-06-08T02:41:33.177Z,13.64
2019-06-08T02:42:33.086Z,13.61
2019-06-08T02:43:33.360Z,13.60
2019-06-08T02:44:34.317Z,13.58
2019-06-08T02:45:34.256Z,13.57
2019-06-08T02:47:34.028Z,13.54
2019-06-08T02:48:33.643Z,13.52
2019-06-08T02:49:33.189Z,13.52
2019-06-08T02:50:33.062Z,13.53
2019-06-08T02:52:34.351Z,13.52
2019-06-08T02:53:34.142Z,13.52
2019-06-08T02:54:34.706Z,13.52
2019-06-08T02:55:33.085Z,13.51
2019-06-08T02:57:33.216Z,13.50
2019-06-08T02:58:33.568Z,13.48
2019-06-08T02:59:32.908Z,13.51
2019-06-08T03:00:33.713Z,13.51
2019-06-08T03:01:33.708Z,13.50
2019-06-08T03:03:33.786Z,13.50
2019-06-08T03:04:34.478Z,13.51
2019-06-08T03:05:34.042Z,13.51
2019-06-08T03:06:34.541Z,13.52
2019-06-08T03:08:34.282Z,13.51
2019-06-08T03:09:34.628Z,13.51
2019-06-08T03:10:32.931Z,13.51
2019-06-08T03:11:32.747Z,13.50
2019-06-08T03:13:33.566Z,13.51
2019-06-08T03:14:33.365Z,13.50
2019-06-08T03:15:35.061Z,13.51
2019-06-08T03:16:33.353Z,13.51
2019-06-08T03:18:33.687Z,13.51
2019-06-08T03:19:33.310Z,13.49
2019-06-08T03:20:33.482Z,13.48
2019-06-08T03:21:33.919Z,13.47
2019-06-08T03:23:34.198Z,13.47
2019-06-08T03:24:34.345Z,13.46
2019-06-08T03:25:35.392Z,13.45
2019-06-08T03:26:34.111Z,13.44
2019-06-08T03:28:34.585Z,13.44
2019-06-08T03:29:34.753Z,13.42
2019-06-08T03:30:35.319Z,13.42
2019-06-08T03:31:36.190Z,13.43
2019-06-08T03:33:35.835Z,13.42
2019-06-08T03:34:35.637Z,13.43
2019-06-08T03:35:36.291Z,13.42
2019-06-08T03:36:35.931Z,13.44
2019-06-08T03:38:33.765Z,13.44
2019-06-08T03:39:32.743Z,13.45
2019-06-08T03:40:33.913Z,13.45
2019-06-08T03:41:34.368Z,13.46
2019-06-08T03:43:32.678Z,13.46
2019-06-08T03:44:34.206Z,13.46
2019-06-08T03:45:34.191Z,13.47
2019-06-08T03:46:34.355Z,13.48
2019-06-08T03:48:32.763Z,13.47
2019-06-08T03:49:42.786Z,13.48
2019-06-08T03:50:32.727Z,13.49
2019-06-08T03:51:36.035Z,13.50
2019-06-08T03:53:32.787Z,13.51
2019-06-08T03:54:32.743Z,13.51
2019-06-08T03:55:32.702Z,13.50
2019-06-08T03:56:32.725Z,13.50
2019-06-08T03:58:34.119Z,13.52
2019-06-08T03:59:32.714Z,13.51
2019-06-08T04:00:32.720Z,13.53
2019-06-08T04:01:32.707Z,13.53
2019-06-08T04:03:32.748Z,13.55
2019-06-08T04:04:32.761Z,13.56
2019-06-08T04:05:32.720Z,13.56
2019-06-08T04:06:32.713Z,13.57
2019-06-08T04:08:32.727Z,13.59
2019-06-08T04:09:32.734Z,13.61
2019-06-08T04:10:32.813Z,13.61
2019-06-08T04:11:32.737Z,13.63
2019-06-08T04:13:32.786Z,13.64
2019-06-08T04:14:32.743Z,13.69
2019-06-08T04:15:32.734Z,13.70
2019-06-08T04:16:32.744Z,13.71
2019-06-08T04:18:32.833Z,13.78
2019-06-08T04:19:32.765Z,13.81
2019-06-08T04:20:32.801Z,13.83
2019-06-08T04:21:32.742Z,13.84
2019-06-08T04:23:32.748Z,13.89
2019-06-08T04:24:32.868Z,13.92
2019-06-08T04:25:32.770Z,13.93
2019-06-08T04:26:32.747Z,13.97
2019-06-08T04:28:32.750Z,13.99
2019-06-08T04:29:32.816Z,14.00
2019-06-08T04:30:32.754Z,14.02
2019-06-08T04:31:32.818Z,14.03
2019-06-08T04:34:32.754Z,14.08
2019-06-08T04:35:32.766Z,14.11
2019-06-08T04:36:32.752Z,14.13
2019-06-08T04:37:32.802Z,14.13
2019-06-08T04:39:32.766Z,14.17
2019-06-08T04:40:32.763Z,14.20
2019-06-08T04:41:32.831Z,14.22
2019-06-08T04:42:32.779Z,14.22
2019-06-08T04:44:32.767Z,14.26
2019-06-08T04:45:32.801Z,14.29
2019-06-08T04:46:32.815Z,14.31
2019-06-08T04:47:32.775Z,14.34
2019-06-08T04:49:32.821Z,14.36
2019-06-08T04:50:32.786Z,14.37
2019-06-08T04:51:32.770Z,14.39
2019-06-08T04:52:32.807Z,14.42
2019-06-08T04:54:32.773Z,14.42
2019-06-08T04:55:32.788Z,14.42
2019-06-08T04:56:32.804Z,14.43
2019-06-08T04:57:32.838Z,14.43
2019-06-08T04:59:32.795Z,14.43
2019-06-08T05:00:32.804Z,14.44
2019-06-08T05:01:32.802Z,14.46
2019-06-08T05:02:32.794Z,14.44
2019-06-08T05:04:32.792Z,14.44
2019-06-08T05:05:32.807Z,14.44
2019-06-08T05:06:32.859Z,14.43
2019-06-08T05:07:32.799Z,14.42
2019-06-08T05:09:32.813Z,14.43
2019-06-08T05:10:32.849Z,14.42
2019-06-08T05:11:36.181Z,14.43
2019-06-08T05:12:32.850Z,14.44
2019-06-08T05:14:32.804Z,14.45
2019-06-08T05:15:32.811Z,14.44
2019-06-08T05:16:32.854Z,14.45
2019-06-08T05:17:32.832Z,14.47
2019-06-08T05:19:33.196Z,14.47
2019-06-08T05:20:39.053Z,14.48
2019-06-08T05:21:32.821Z,14.49
2019-06-08T05:22:32.864Z,14.50
2019-06-08T05:25:32.840Z,14.50
2019-06-08T05:26:32.815Z,14.51
2019-06-08T05:27:32.883Z,14.50
2019-06-08T05:28:32.826Z,14.51
2019-06-08T05:30:32.833Z,14.51
2019-06-08T05:31:32.829Z,14.51
2019-06-08T05:32:32.844Z,14.51
2019-06-08T05:33:32.858Z,14.51
2019-06-08T05:35:32.834Z,14.51
2019-06-08T05:36:32.875Z,14.52
2019-06-08T05:37:32.867Z,14.52
2019-06-08T05:38:32.852Z,14.55
2019-06-08T05:41:32.838Z,14.56
2019-06-08T05:42:32.841Z,14.56
2019-06-08T05:43:32.842Z,14.56
2019-06-08T05:44:32.843Z,14.57
2019-06-08T05:45:32.861Z,14.57
2019-06-08T05:47:32.862Z,14.55
2019-06-08T05:48:32.855Z,14.55
2019-06-08T05:49:32.863Z,14.55
2019-06-08T05:50:32.859Z,14.53
2019-06-08T05:53:32.913Z,14.53
2019-06-08T05:54:32.872Z,14.53
2019-06-08T05:55:32.879Z,14.54
2019-06-08T05:56:32.861Z,14.53
2019-06-08T05:58:32.866Z,14.53
2019-06-08T05:59:32.860Z,14.53
2019-06-08T06:00:32.873Z,14.53
2019-06-08T06:01:32.878Z,14.53
2019-06-08T06:03:32.914Z,14.54
2019-06-08T06:04:32.872Z,14.54
2019-06-08T06:05:32.934Z,14.55
2019-06-08T06:06:32.873Z,14.54
2019-06-08T06:07:32.884Z,14.56
2019-06-08T06:09:32.888Z,14.57
2019-06-08T06:10:32.880Z,14.58
2019-06-08T06:11:32.897Z,14.57
2019-06-08T06:12:32.901Z,14.58
2019-06-08T06:14:32.909Z,14.58
2019-06-08T06:15:32.939Z,14.60
2019-06-08T06:16:32.956Z,14.59
2019-06-08T06:17:32.891Z,14.60
2019-06-08T06:20:32.915Z,14.61
2019-06-08T06:21:32.889Z,14.61
2019-06-08T06:22:32.902Z,14.63
2019-06-08T06:23:32.937Z,14.64
2019-06-08T06:26:32.921Z,14.65
2019-06-08T06:27:32.896Z,14.67
2019-06-08T06:28:32.919Z,14.68
2019-06-08T06:29:32.931Z,14.68
2019-06-08T06:30:32.960Z,14.70
2019-06-08T06:32:32.973Z,14.72
2019-06-08T06:33:32.914Z,14.72
2019-06-08T06:34:32.910Z,14.72
2019-06-08T06:35:32.959Z,14.72
2019-06-08T06:38:32.912Z,14.72
2019-06-08T06:39:32.915Z,14.73
2019-06-08T06:40:32.925Z,14.73
2019-06-08T06:41:32.922Z,14.72
2019-06-08T06:43:32.922Z,14.73
2019-06-08T06:44:32.926Z,14.74
2019-06-08T06:45:33.001Z,14.74
2019-06-08T06:46:32.951Z,14.74
2019-06-08T06:48:33.001Z,14.74
2019-06-08T06:49:32.913Z,14.75
2019-06-08T06:50:32.924Z,14.74
2019-06-08T06:51:34.015Z,14.75
2019-06-08T06:54:32.986Z,14.78
2019-06-08T06:55:32.931Z,14.77
2019-06-08T06:56:32.949Z,14.79
2019-06-08T06:57:36.238Z,14.81
2019-06-08T06:59:32.959Z,14.83
2019-06-08T07:00:33.107Z,14.83
2019-06-08T07:01:32.941Z,14.84
2019-06-08T07:02:33.053Z,14.83
2019-06-08T07:04:33.011Z,14.86
2019-06-08T07:05:32.945Z,14.87
2019-06-08T07:06:32.996Z,14.89
2019-06-08T07:07:32.961Z,14.89
2019-06-08T07:09:32.947Z,14.90
2019-06-08T07:10:32.952Z,14.91
2019-06-08T07:11:32.951Z,14.92
2019-06-08T07:12:32.959Z,14.92
2019-06-08T07:14:32.957Z,14.94
2019-06-08T07:15:41.108Z,14.95
2019-06-08T07:16:32.970Z,14.95
2019-06-08T07:17:32.960Z,14.94
2019-06-08T07:20:33.060Z,14.96
2019-06-08T07:21:41.191Z,14.95
2019-06-08T07:22:32.962Z,14.96
2019-06-08T07:23:33.004Z,14.97
2019-06-08T07:26:32.973Z,15.00
2019-06-08T07:27:33.019Z,14.99
2019-06-08T07:28:32.994Z,15.01
2019-06-08T07:29:32.995Z,15.02
2019-06-08T07:31:33.084Z,15.02
2019-06-08T07:32:33.013Z,15.03
2019-06-08T07:33:32.986Z,15.04
2019-06-08T07:34:33.043Z,15.04
2019-06-08T07:37:33.065Z,15.05
2019-06-08T07:38:33.009Z,15.06
2019-06-08T07:39:33.028Z,15.07
2019-06-08T07:40:33.001Z,15.07
2019-06-08T07:42:33.005Z,15.09
2019-06-08T07:43:32.995Z,15.10
2019-06-08T07:44:32.998Z,15.13
2019-06-08T07:45:33.036Z,15.14
2019-06-08T07:47:33.029Z,15.20
2019-06-08T07:48:33.014Z,15.22
2019-06-08T07:49:33.005Z,15.24
2019-06-08T07:50:33.006Z,15.26
2019-06-08T07:52:33.050Z,15.28
2019-06-08T07:53:33.029Z,15.28
2019-06-08T07:54:33.047Z,15.28
2019-06-08T07:55:33.018Z,15.29
2019-06-08T07:58:33.042Z,15.28
2019-06-08T07:59:33.033Z,15.27
2019-06-08T08:00:33.012Z,15.28
2019-06-08T08:01:36.486Z,15.26
2019-06-08T08:04:33.119Z,15.24
2019-06-08T08:05:33.020Z,15.23
2019-06-08T08:06:33.066Z,15.22
2019-06-08T08:07:33.034Z,15.20
2019-06-08T08:10:33.024Z,15.22
2019-06-08T08:11:33.078Z,15.23
2019-06-08T08:12:33.035Z,15.23
2019-06-08T08:13:33.081Z,15.24
2019-06-08T08:15:33.099Z,15.27
2019-06-08T08:16:33.083Z,15.29
2019-06-08T08:17:34.384Z,15.30
2019-06-08T08:18:33.059Z,15.31
2019-06-08T08:20:33.096Z,15.36
2019-06-08T08:21:33.048Z,15.35
2019-06-08T08:22:33.050Z,15.37
2019-06-08T08:23:33.055Z,15.38
2019-06-08T08:26:34.410Z,15.39
2019-06-08T08:27:33.041Z,15.39
2019-06-08T08:28:33.061Z,15.37
2019-06-08T08:29:33.064Z,15.38
2019-06-08T08:31:33.086Z,15.40
2019-06-08T08:32:33.080Z,15.39
2019-06-08T08:33:33.111Z,15.42
2019-06-08T08:34:33.118Z,15.42
2019-06-08T08:36:33.493Z,15.44
2019-06-08T08:37:33.066Z,15.44
2019-06-08T08:38:33.134Z,15.46
2019-06-08T08:39:33.064Z,15.47
2019-06-08T08:42:33.067Z,15.50
2019-06-08T08:43:33.102Z,15.50
2019-06-08T08:44:33.192Z,15.52
2019-06-08T08:45:33.076Z,15.55
2019-06-08T08:47:33.080Z,15.58
2019-06-08T08:48:33.087Z,15.60
2019-06-08T08:49:33.145Z,15.61
2019-06-08T08:50:33.106Z,15.61
2019-06-08T08:52:37.028Z,15.61
2019-06-08T08:53:33.146Z,15.62
2019-06-08T08:54:33.084Z,15.61
2019-06-08T08:55:33.088Z,15.62
2019-06-08T08:58:33.163Z,15.61
2019-06-08T08:59:33.107Z,15.62
2019-06-08T09:00:33.108Z,15.60
2019-06-08T09:01:33.092Z,15.61
2019-06-08T09:04:33.246Z,15.60
2019-06-08T09:05:33.275Z,15.62
2019-06-08T09:06:33.122Z,15.62
2019-06-08T09:07:33.103Z,15.64
2019-06-08T09:09:33.132Z,15.65
2019-06-08T09:10:33.116Z,15.67
2019-06-08T09:11:33.115Z,15.69
2019-06-08T09:12:33.126Z,15.71
2019-06-08T09:14:33.232Z,15.75
2019-06-08T09:15:33.167Z,15.75
2019-06-08T09:16:33.130Z,15.80
2019-06-08T09:17:33.120Z,15.82
2019-06-08T09:20:33.163Z,15.91
2019-06-08T09:21:33.133Z,15.95
2019-06-08T09:22:33.140Z,15.98
2019-06-08T09:23:33.457Z,15.99
2019-06-08T09:25:33.141Z,16.06
2019-06-08T09:26:33.134Z,16.08
2019-06-08T09:27:33.155Z,16.10
2019-06-08T09:28:33.159Z,16.11
2019-06-08T09:31:33.140Z,16.18
2019-06-08T09:32:33.180Z,16.21
2019-06-08T09:33:33.161Z,16.23
2019-06-08T09:34:33.220Z,16.25
2019-06-08T09:36:33.166Z,16.31
2019-06-08T09:37:33.173Z,16.33
2019-06-08T09:38:33.159Z,16.36
2019-06-08T09:39:33.261Z,16.39
2019-06-08T09:41:33.152Z,16.44
2019-06-08T09:42:33.192Z,16.45
2019-06-08T09:43:33.194Z,16.50
2019-06-08T09:44:33.167Z,16.50
2019-06-08T09:46:33.181Z,16.54
2019-06-08T09:47:33.157Z,16.54
2019-06-08T09:48:33.479Z,16.57
2019-06-08T09:49:33.175Z,16.59
2019-06-08T09:51:33.305Z,16.62
2019-06-08T09:52:33.349Z,16.63
2019-06-08T09:53:37.484Z,16.64
2019-06-08T09:54:33.161Z,16.64
2019-06-08T09:56:33.237Z,16.59
2019-06-08T09:57:33.228Z,16.60
2019-06-08T09:58:33.203Z,16.59
2019-06-08T09:59:33.231Z,16.59
2019-06-08T10:01:33.190Z,16.59
2019-06-08T10:02:33.190Z,16.57
2019-06-08T10:03:33.179Z,16.58
2019-06-08T10:04:33.201Z,16.57
2019-06-08T10:06:33.245Z,16.59
2019-06-08T10:07:33.194Z,16.58
2019-06-08T10:08:33.214Z,16.59
2019-06-08T10:09:33.239Z,16.62
2019-06-08T10:11:33.184Z,16.65
2019-06-08T10:12:33.207Z,16.69
2019-06-08T10:13:33.213Z,16.75
2019-06-08T10:14:33.234Z,16.80
2019-06-08T10:17:33.222Z,17.07
2019-06-08T10:18:33.204Z,17.17
2019-06-08T10:19:33.229Z,17.23
2019-06-08T10:20:33.214Z,17.30
2019-06-08T10:22:33.206Z,17.40
2019-06-08T10:23:34.529Z,17.46
2019-06-08T10:24:33.242Z,17.52
2019-06-08T10:25:33.257Z,17.60
2019-06-08T10:27:33.270Z,17.85
2019-06-08T10:28:33.258Z,18.01
2019-06-08T10:29:33.285Z,18.12
2019-06-08T10:30:33.229Z,18.21
2019-06-08T10:33:33.217Z,18.50
2019-06-08T10:34:33.213Z,18.65
2019-06-08T10:35:33.241Z,18.73
2019-06-08T10:37:33.219Z,18.90
2019-06-08T10:38:33.288Z,19.01
2019-06-08T10:39:33.462Z,19.05
2019-06-08T10:40:33.249Z,19.10
2019-06-08T10:42:33.267Z,19.13
2019-06-08T10:43:33.265Z,19.26
2019-06-08T10:44:33.229Z,19.39
2019-06-08T10:45:33.238Z,19.58
2019-06-08T10:47:33.246Z,19.90
2019-06-08T10:48:33.269Z,20.07
2019-06-08T10:49:33.270Z,20.20
2019-06-08T10:50:33.257Z,20.33
2019-06-08T10:52:33.244Z,20.65
2019-06-08T10:53:46.525Z,20.81
2019-06-08T10:54:33.255Z,20.92
2019-06-08T10:55:33.246Z,20.98
2019-06-08T10:57:33.405Z,21.11
2019-06-08T10:58:33.260Z,21.19
2019-06-08T10:59:36.518Z,21.30
2019-06-08T11:00:33.272Z,21.38
2019-06-08T11:01:33.341Z,21.43
2019-06-08T11:03:33.259Z,21.57
2019-06-08T11:04:33.271Z,21.65
2019-06-08T11:05:33.487Z,21.73
2019-06-08T11:06:33.520Z,21.82
2019-06-08T11:08:33.274Z,21.99
2019-06-08T11:09:33.302Z,22.02
2019-06-08T11:10:33.320Z,22.14
2019-06-08T11:11:33.330Z,22.19
2019-06-08T11:13:33.307Z,22.34
2019-06-08T11:14:33.271Z,22.40
2019-06-08T11:15:33.282Z,22.48
2019-06-08T11:16:33.276Z,22.53
2019-06-08T11:19:33.293Z,22.71
2019-06-08T11:20:33.292Z,22.71
2019-06-08T11:21:33.284Z,22.68
2019-06-08T11:22:33.291Z,22.59
2019-06-08T11:24:33.318Z,22.35
2019-06-08T11:25:33.321Z,22.13
2019-06-08T11:26:33.337Z,21.97
2019-06-08T11:27:33.300Z,21.84
2019-06-08T11:29:33.304Z,21.76
2019-06-08T11:30:33.295Z,21.77
2019-06-08T11:31:33.353Z,21.80
2019-06-08T11:32:33.288Z,21.80
2019-06-08T11:34:33.322Z,21.74
2019-06-08T11:35:33.317Z,21.68
2019-06-08T11:36:33.361Z,21.54
2019-06-08T11:37:33.306Z,21.46
2019-06-08T11:39:33.356Z,21.24
2019-06-08T11:40:33.368Z,21.05
2019-06-08T11:41:33.363Z,20.93
2019-06-08T11:42:33.342Z,20.80
2019-06-08T11:44:33.422Z,20.68
2019-06-08T11:45:33.319Z,20.70
2019-06-08T11:46:33.323Z,20.66
2019-06-08T11:47:33.343Z,20.69
2019-06-08T11:50:33.374Z,20.81
2019-06-08T11:51:33.358Z,20.81
2019-06-08T11:52:33.347Z,20.84
2019-06-08T11:54:37.021Z,20.99
2019-06-08T11:55:33.340Z,21.09
2019-06-08T11:56:33.386Z,21.20
2019-06-08T11:57:33.379Z,21.30
2019-06-08T11:59:33.359Z,21.60
2019-06-08T12:00:33.339Z,21.81
2019-06-08T12:01:33.348Z,21.96
2019-06-08T12:02:33.348Z,22.05
2019-06-08T12:04:33.412Z,22.04
2019-06-08T12:05:33.347Z,22.06
2019-06-08T12:06:33.355Z,22.10
2019-06-08T12:07:33.343Z,22.09
2019-06-08T12:09:33.356Z,22.08
2019-06-08T12:10:33.372Z,22.07
2019-06-08T12:11:33.366Z,22.00
2019-06-08T12:12:33.446Z,21.96
2019-06-08T12:14:33.740Z,21.89
2019-06-08T12:15:33.423Z,21.86
2019-06-08T12:16:33.401Z,21.93
2019-06-08T12:17:33.376Z,22.03
2019-06-08T12:20:33.433Z,22.37
2019-06-08T12:21:33.458Z,22.45
2019-06-08T12:22:33.418Z,22.48
2019-06-08T12:23:33.409Z,22.43
2019-06-08T12:25:33.388Z,22.36
2019-06-08T12:26:33.388Z,22.30
2019-06-08T12:27:36.349Z,22.36
2019-06-08T12:28:33.386Z,22.42
2019-06-08T12:30:34.123Z,22.44
2019-06-08T12:31:33.416Z,22.46
2019-06-08T12:32:33.505Z,22.51
2019-06-08T12:33:33.393Z,22.57
2019-06-08T12:34:33.407Z,22.65
2019-06-08T12:36:33.410Z,22.81
2019-06-08T12:37:33.387Z,22.84
2019-06-08T12:38:34.669Z,22.87
2019-06-08T12:39:33.392Z,22.90
2019-06-08T12:40:33.642Z,22.97
2019-06-08T12:42:33.429Z,23.10
2019-06-08T12:43:33.408Z,23.17
2019-06-08T12:44:33.456Z,23.19
2019-06-08T12:45:33.422Z,23.18
2019-06-08T12:47:33.424Z,23.15
2019-06-08T12:48:33.440Z,23.14
2019-06-08T12:49:33.420Z,23.08
2019-06-08T12:50:33.417Z,23.06
2019-06-08T12:52:33.452Z,23.10
2019-06-08T12:53:33.443Z,23.13
2019-06-08T12:54:33.434Z,23.16
2019-06-08T12:55:33.435Z,23.23
2019-06-08T12:57:33.572Z,23.35
2019-06-08T12:58:33.435Z,23.33
2019-06-08T12:59:33.451Z,23.32
2019-06-08T13:00:33.509Z,23.37
2019-06-08T13:02:33.486Z,23.49
2019-06-08T13:03:33.440Z,23.55
2019-06-08T13:04:33.452Z,23.55
2019-06-08T13:05:33.457Z,23.57
2019-06-08T13:07:33.435Z,23.58
2019-06-08T13:08:33.476Z,23.61
2019-06-08T13:09:33.482Z,23.66
2019-06-08T13:10:33.478Z,23.73
2019-06-08T13:12:33.463Z,23.89
2019-06-08T13:13:33.471Z,23.89
2019-06-08T13:14:33.470Z,23.93
2019-06-08T13:15:33.499Z,23.93
2019-06-08T13:17:33.482Z,23.90
2019-06-08T13:18:33.522Z,23.89
2019-06-08T13:19:33.476Z,23.88
2019-06-08T13:20:33.469Z,23.80
2019-06-08T13:22:33.470Z,23.75
2019-06-08T13:23:33.480Z,23.72
2019-06-08T13:24:33.654Z,23.63
2019-06-08T13:25:40.091Z,23.54
2019-06-08T13:27:33.538Z,23.32
2019-06-08T13:28:33.547Z,23.27
2019-06-08T13:29:33.540Z,23.18
2019-06-08T13:30:33.538Z,23.16
2019-06-08T13:32:33.486Z,23.18
2019-06-08T13:33:33.507Z,23.25
2019-06-08T13:34:33.499Z,23.30
2019-06-08T13:35:33.564Z,23.36
2019-06-08T13:37:33.497Z,23.40
2019-06-08T13:38:33.563Z,23.34
2019-06-08T13:39:33.519Z,23.34
2019-06-08T13:40:33.571Z,23.32
2019-06-08T13:42:33.554Z,23.34
2019-06-08T13:43:33.553Z,23.34
2019-06-08T13:44:33.581Z,23.30
2019-06-08T13:45:33.499Z,23.30
2019-06-08T13:47:33.580Z,23.32
2019-06-08T13:48:33.557Z,23.36
2019-06-08T13:49:33.516Z,23.34
2019-06-08T13:50:33.565Z,23.36
2019-06-08T13:53:33.556Z,23.32
2019-06-08T13:54:33.530Z,23.31
2019-06-08T13:55:48.574Z,23.32
2019-06-08T13:56:33.528Z,23.35
2019-06-08T13:58:33.810Z,23.38
2019-06-08T13:59:33.574Z,23.40
2019-06-08T14:00:33.551Z,23.39
2019-06-08T14:01:33.571Z,23.45
2019-06-08T14:03:33.529Z,23.45
2019-06-08T14:04:33.549Z,23.40
2019-06-08T14:05:33.558Z,23.45
2019-06-08T14:06:33.579Z,23.41
2019-06-08T14:08:33.545Z,23.29
2019-06-08T14:09:33.616Z,23.26
2019-06-08T14:10:33.611Z,23.28
2019-06-08T14:11:33.562Z,23.30
2019-06-08T14:14:33.857Z,23.37
2019-06-08T14:15:33.600Z,23.43
2019-06-08T14:16:33.564Z,23.45
2019-06-08T14:17:33.571Z,23.49
2019-06-08T14:19:33.588Z,23.51
2019-06-08T14:20:34.479Z,23.52
2019-06-08T14:21:40.920Z,23.54
2019-06-08T14:22:33.598Z,23.52
2019-06-08T14:24:34.727Z,23.46
2019-06-08T14:25:46.975Z,23.41
2019-06-08T14:26:33.569Z,23.39
2019-06-08T14:27:33.605Z,23.39
2019-06-08T14:29:33.587Z,23.33
2019-06-08T14:30:33.658Z,23.29
2019-06-08T14:31:33.634Z,23.25
2019-06-08T14:32:33.590Z,23.18
2019-06-08T14:34:33.616Z,23.16
2019-06-08T14:35:33.592Z,23.15
2019-06-08T14:36:33.591Z,23.15
2019-06-08T14:37:33.654Z,23.11
2019-06-08T14:39:33.610Z,23.09
2019-06-08T14:40:33.599Z,23.08
2019-06-08T14:41:33.608Z,23.05
2019-06-08T14:42:33.606Z,23.05
2019-06-08T14:45:33.645Z,22.87
2019-06-08T14:46:33.604Z,22.82
2019-06-08T14:47:33.608Z,22.73
2019-06-08T14:48:33.971Z,22.64
2019-06-08T14:50:33.642Z,22.53
2019-06-08T14:51:33.602Z,22.46
2019-06-08T14:52:33.627Z,22.39
2019-06-08T14:53:33.617Z,22.33
2019-06-08T14:55:34.319Z,22.25
2019-06-08T14:56:33.620Z,22.20
2019-06-08T14:57:33.610Z,22.14
2019-06-08T14:58:35.025Z,22.14
2019-06-08T15:00:33.662Z,22.07
2019-06-08T15:01:33.610Z,22.05
2019-06-08T15:02:33.683Z,22.00
2019-06-08T15:03:33.629Z,21.93
2019-06-08T15:15:47.979Z,21.40
2019-06-08T15:16:49.367Z,21.35
2019-06-08T15:17:47.963Z,21.34
2019-06-08T15:18:47.970Z,21.33
2019-06-08T15:19:47.975Z,21.32
2019-06-08T15:20:48.397Z,21.30
2019-06-08T15:21:48.527Z,21.27
2019-06-08T15:22:47.982Z,21.24
2019-06-08T15:23:47.993Z,21.24
2019-06-08T15:24:47.988Z,21.23
2019-06-08T15:25:48.067Z,21.21
2019-06-08T15:26:48.767Z,21.20
2019-06-08T15:27:47.973Z,21.17
2019-06-08T15:28:48.550Z,21.14
2019-06-08T15:29:48.015Z,21.09
2019-06-08T15:30:48.006Z,21.07
2019-06-08T15:31:48.437Z,21.06
2019-06-08T15:32:48.171Z,21.01
2019-06-08T15:33:48.332Z,20.99
2019-06-08T15:34:50.941Z,20.96
2019-06-08T15:35:48.107Z,20.96
2019-06-08T15:36:48.037Z,20.93
2019-06-08T15:37:48.139Z,20.94
2019-06-08T15:38:48.160Z,20.92
2019-06-08T15:39:48.582Z,20.91
2019-06-08T15:40:47.984Z,20.91
2019-06-08T15:41:48.801Z,20.88
2019-06-08T15:42:48.332Z,20.87
2019-06-08T15:43:48.219Z,20.86
2019-06-08T15:44:48.107Z,20.86
2019-06-08T15:45:48.842Z,20.85
2019-06-08T15:46:48.038Z,20.85
2019-06-08T15:47:48.615Z,20.84
2019-06-08T15:48:48.650Z,20.82
2019-06-08T15:49:50.367Z,20.77
2019-06-08T15:50:49.411Z,20.76
2019-06-08T15:51:48.205Z,20.77
2019-06-08T15:52:48.283Z,20.78
2019-06-08T15:53:48.217Z,20.74
2019-06-08T15:54:48.531Z,20.74
2019-06-08T15:55:48.682Z,20.73
2019-06-08T15:56:51.360Z,20.72
2019-06-08T15:57:48.038Z,20.72
2019-06-08T15:58:48.668Z,20.71
2019-06-08T15:59:49.224Z,20.70
2019-06-08T16:00:48.025Z,20.69
2019-06-08T16:01:48.029Z,20.66
2019-06-08T16:02:48.045Z,20.67
2019-06-08T16:03:48.071Z,20.65
2019-06-08T16:04:48.013Z,20.64
2019-06-08T16:05:48.026Z,20.68
2019-06-08T16:06:48.059Z,20.71
2019-06-08T16:07:48.024Z,20.75
2019-06-08T16:08:48.038Z,20.78
2019-06-08T16:09:48.049Z,20.79
2019-06-08T16:10:48.039Z,20.82
2019-06-08T16:11:48.046Z,20.83
2019-06-08T16:12:48.038Z,20.87
2019-06-08T16:13:48.030Z,20.91
2019-06-08T16:14:48.066Z,20.93
2019-06-08T16:15:48.052Z,20.95
2019-06-08T16:16:48.061Z,20.97
2019-06-08T16:17:48.049Z,20.97
2019-06-08T16:18:48.086Z,20.99
2019-06-08T16:19:48.085Z,21.00
2019-06-08T16:20:48.075Z,21.00
2019-06-08T16:21:48.041Z,21.02
2019-06-08T16:22:48.048Z,21.00
2019-06-08T16:23:48.060Z,20.99
2019-06-08T16:24:48.051Z,20.98
2019-06-08T16:25:48.106Z,20.96